createdAt,value
2018-04-02T00:02:01.952Z,37.00
2018-04-02T00:07:03.517Z,37.70
2018-04-02T00:12:05.075Z,35.73
2018-04-02T00:17:07.734Z,37.10
2018-04-02T00:22:09.291Z,38.30
2018-04-02T00:27:10.841Z,37.63
2018-04-02T00:32:13.125Z,35.63
2018-04-02T00:37:15.438Z,38.77
2018-04-02T00:42:16.968Z,36.17
2018-04-02T00:47:18.593Z,31.27
2018-04-02T00:52:20.121Z,35.10
2018-04-02T00:57:22.405Z,35.70
2018-04-02T01:02:24.877Z,36.57
2018-04-02T01:07:26.463Z,37.30
2018-04-02T01:12:28.090Z,35.87
2018-04-02T01:17:29.653Z,35.40
2018-04-02T01:22:31.185Z,36.73
2018-04-02T01:27:32.722Z,34.17
2018-04-02T01:32:34.305Z,35.10
2018-04-02T01:37:35.868Z,35.97
2018-04-02T01:42:38.157Z,35.90
2018-04-02T01:47:40.441Z,35.67
2018-04-02T01:52:42.734Z,31.30
2018-04-02T01:57:45.029Z,28.93
2018-04-02T02:02:47.557Z,31.87
2018-04-02T02:07:49.156Z,30.40
2018-04-02T02:12:50.702Z,27.80
2018-04-02T02:17:52.237Z,27.40
2018-04-02T02:22:53.760Z,29.07
2018-04-02T02:27:55.310Z,24.60
2018-04-02T02:32:56.949Z,26.23
2018-04-02T02:37:58.526Z,23.67
2018-04-02T02:43:00.035Z,23.07
2018-04-02T02:48:02.313Z,21.57
2018-04-02T02:53:03.884Z,22.77
2018-04-02T02:58:05.587Z,21.93
2018-04-02T03:03:07.854Z,21.87
2018-04-02T03:08:09.381Z,20.97
2018-04-02T03:13:10.905Z,23.13
2018-04-02T03:18:13.313Z,20.80
2018-04-02T03:23:14.817Z,21.40
2018-04-02T03:28:16.431Z,23.80
2018-04-02T03:33:18.705Z,21.73
2018-04-02T03:38:21.046Z,21.73
2018-04-02T03:43:22.562Z,20.00
2018-04-02T03:48:24.969Z,22.13
2018-04-02T03:53:26.563Z,21.40
2018-04-02T03:58:29.081Z,20.40
2018-04-02T04:03:30.578Z,19.80
2018-04-02T04:08:33.408Z,22.40
2018-04-02T04:13:34.931Z,20.77
2018-04-02T04:18:36.470Z,19.80
2018-04-02T04:23:38.029Z,18.53
2018-04-02T04:28:39.556Z,20.27
2018-04-02T04:33:42.000Z,20.40
2018-04-02T04:38:43.550Z,21.30
2018-04-02T04:43:45.077Z,17.23
2018-04-02T04:48:47.354Z,19.40
2018-04-02T04:53:49.612Z,20.03
2018-04-02T04:58:51.196Z,16.80
2018-04-02T05:03:52.792Z,16.27
2018-04-02T05:08:55.058Z,16.80
2018-04-02T05:13:56.596Z,16.17
2018-04-02T05:18:58.214Z,16.83
2018-04-02T05:24:00.657Z,16.93
2018-04-02T05:29:02.157Z,16.83
2018-04-02T05:34:04.401Z,21.43
2018-04-02T05:39:05.910Z,17.80
2018-04-02T05:44:08.217Z,19.23
2018-04-02T05:49:10.455Z,17.03
2018-04-02T05:54:11.986Z,15.87
2018-04-02T05:59:13.553Z,14.47
2018-04-02T06:04:15.085Z,15.50
2018-04-02T06:09:17.402Z,14.67
2018-04-02T06:14:18.900Z,16.83
2018-04-02T06:19:20.531Z,16.60
2018-04-02T06:24:22.175Z,18.50
2018-04-02T06:29:24.434Z,19.10
2018-04-02T06:34:25.956Z,21.50
2018-04-02T06:39:27.500Z,20.30
2018-04-02T06:44:29.764Z,19.77
2018-04-02T06:49:31.277Z,22.63
2018-04-02T06:54:32.961Z,21.57
2018-04-02T06:59:34.476Z,20.73
2018-04-02T07:04:36.042Z,22.10
2018-04-02T07:09:37.632Z,21.83
2018-04-02T07:14:39.932Z,22.50
2018-04-02T07:19:41.477Z,21.30
2018-04-02T07:24:43.757Z,22.57
2018-04-02T07:29:45.313Z,20.33
2018-04-02T07:34:46.853Z,19.93
2018-04-02T07:39:48.432Z,20.70
2018-04-02T07:44:49.990Z,20.17
2018-04-02T07:49:51.565Z,22.10
2018-04-02T07:54:53.115Z,20.20
2018-04-02T07:59:54.648Z,19.10
2018-04-02T08:04:56.964Z,20.87
2018-04-02T08:09:58.572Z,19.77
2018-04-02T08:15:00.135Z,19.50
2018-04-02T08:20:01.741Z,19.73
2018-04-02T08:25:03.413Z,17.57
2018-04-02T08:30:05.681Z,16.53
2018-04-02T08:35:07.974Z,19.23
2018-04-02T08:40:09.524Z,16.87
2018-04-02T08:45:11.061Z,18.13
2018-04-02T08:50:12.618Z,17.60
2018-04-02T08:55:14.162Z,18.57
2018-04-02T09:00:16.472Z,17.10
2018-04-02T09:05:18.134Z,18.57
2018-04-02T09:10:19.774Z,17.80
2018-04-02T09:15:22.127Z,14.43
2018-04-02T09:20:23.674Z,15.23
2018-04-02T09:25:25.214Z,14.13
2018-04-02T09:30:27.499Z,15.40
2018-04-02T09:35:29.789Z,13.20
2018-04-02T09:40:31.325Z,15.10
2018-04-02T09:45:32.952Z,14.50
2018-04-02T09:50:34.504Z,12.63
2018-04-02T09:55:36.016Z,14.13
2018-04-02T10:00:37.542Z,11.50
2018-04-02T10:05:39.138Z,11.57
2018-04-02T10:10:40.660Z,12.80
2018-04-02T10:15:42.194Z,10.63
2018-04-02T10:20:44.133Z,9.73
2018-04-02T10:25:45.741Z,10.90
2018-04-02T10:30:47.376Z,9.70
2018-04-02T10:35:49.658Z,10.97
2018-04-02T10:40:51.214Z,9.23
2018-04-02T10:45:52.764Z,8.87
2018-04-02T10:50:55.383Z,9.13
2018-04-02T10:55:56.904Z,9.07
2018-04-02T11:00:58.491Z,9.50
2018-04-02T11:06:00.788Z,8.43
2018-04-02T11:11:02.499Z,7.53
2018-04-02T11:16:04.072Z,8.10
2018-04-02T11:21:05.620Z,7.93
2018-04-02T11:26:07.466Z,8.17
2018-04-02T11:31:09.733Z,7.27
2018-04-02T11:36:12.664Z,8.27
2018-04-02T11:41:14.189Z,9.67
2018-04-02T11:46:15.758Z,6.87
2018-04-02T11:51:17.470Z,8.30
2018-04-02T11:56:19.036Z,6.70
2018-04-02T12:01:20.609Z,8.00
2018-04-02T12:06:22.926Z,7.37
2018-04-02T12:11:24.486Z,6.90
2018-04-02T12:16:26.064Z,8.63
2018-04-02T12:21:27.677Z,6.63
2018-04-02T12:26:29.932Z,11.47
2018-04-02T12:31:31.530Z,7.07
2018-04-02T12:36:33.821Z,7.17
2018-04-02T12:41:36.223Z,6.40
2018-04-02T12:46:37.776Z,5.17
2018-04-02T12:51:40.118Z,6.60
2018-04-02T12:56:41.676Z,6.10
2018-04-02T13:01:43.229Z,4.83
2018-04-02T13:06:44.985Z,5.27
2018-04-02T13:11:46.550Z,4.37
2018-04-02T13:16:48.924Z,5.17
2018-04-02T13:21:51.436Z,4.27
2018-04-02T13:26:53.002Z,4.73
2018-04-02T13:31:54.609Z,5.20
2018-04-02T13:36:56.202Z,5.60
2018-04-02T13:41:57.773Z,5.60
2018-04-02T13:46:59.370Z,5.27
2018-04-02T13:52:01.828Z,6.60
2018-04-02T13:57:04.100Z,5.40
2018-04-02T14:02:05.662Z,5.17
2018-04-02T14:07:07.207Z,6.10
2018-04-02T14:12:08.777Z,10.50
2018-04-02T14:17:10.310Z,4.77
2018-04-02T14:22:12.649Z,6.60
2018-04-02T14:27:14.208Z,5.77
2018-04-02T14:32:16.033Z,11.40
2018-04-02T14:37:18.546Z,4.93
2018-04-02T14:42:20.122Z,7.00
2018-04-02T14:47:21.646Z,4.70
2018-04-02T14:52:23.182Z,5.27
2018-04-02T14:57:24.782Z,4.13
2018-04-02T15:02:26.325Z,4.07
2018-04-02T15:07:27.857Z,4.70
2018-04-02T15:12:29.494Z,4.60
2018-04-02T15:17:31.930Z,4.00
2018-04-02T15:22:33.683Z,5.30
2018-04-02T15:27:35.250Z,4.67
2018-04-02T15:32:37.673Z,4.87
2018-04-02T15:37:39.612Z,4.30
2018-04-02T15:42:41.903Z,4.10
2018-04-02T15:47:43.508Z,4.87
2018-04-02T15:52:45.026Z,4.60
2018-04-02T15:57:47.389Z,3.67
2018-04-02T16:02:48.959Z,4.47
2018-04-02T16:07:50.530Z,5.23
2018-04-02T16:12:52.063Z,3.97
2018-04-02T16:17:53.652Z,4.10
2018-04-02T16:22:55.225Z,3.50
2018-04-02T16:27:56.786Z,3.97
2018-04-02T16:32:58.353Z,6.60
2018-04-02T16:37:59.897Z,6.60
2018-04-02T16:43:01.535Z,5.27
2018-04-02T16:48:03.143Z,5.10
2018-04-02T16:53:04.716Z,5.80
2018-04-02T16:58:06.714Z,4.53
2018-04-02T17:03:08.366Z,3.37
2018-04-02T17:08:10.813Z,3.70
2018-04-02T17:13:13.194Z,3.13
2018-04-02T17:18:15.489Z,4.83
2018-04-02T17:23:17.838Z,3.30
2018-04-02T17:28:19.407Z,3.70
2018-04-02T17:33:21.017Z,3.30
2018-04-02T17:38:23.289Z,3.60
2018-04-02T17:43:25.618Z,2.60
2018-04-02T17:48:27.131Z,3.30
2018-04-02T17:53:28.694Z,3.43
2018-04-02T17:58:30.329Z,3.53
2018-04-02T18:03:31.890Z,3.93
2018-04-02T18:08:33.425Z,4.27
2018-04-02T18:13:35.725Z,5.20
2018-04-02T18:18:37.297Z,6.23
2018-04-02T18:23:39.002Z,6.43
2018-04-02T18:28:40.532Z,4.60
2018-04-02T18:33:42.105Z,3.57
2018-04-02T18:38:43.695Z,2.57
2018-04-02T18:43:45.296Z,2.57
2018-04-02T18:48:46.845Z,3.10
2018-04-02T18:53:48.410Z,2.30
2018-04-02T18:58:50.057Z,3.43
2018-04-02T19:03:51.643Z,2.70
2018-04-02T19:08:53.223Z,3.23
2018-04-02T19:13:54.845Z,2.90
2018-04-02T19:18:57.118Z,2.60
2018-04-02T19:23:59.456Z,3.30
2018-04-02T19:29:01.012Z,3.27
2018-04-02T19:34:02.595Z,4.23
2018-04-02T19:39:05.185Z,4.43
2018-04-02T19:44:06.756Z,3.83
2018-04-02T19:49:08.339Z,4.27
2018-04-02T19:54:09.896Z,5.57
2018-04-02T19:59:11.425Z,4.57
2018-04-02T20:04:13.776Z,4.20
2018-04-02T20:09:15.338Z,4.50
2018-04-02T20:14:16.923Z,4.90
2018-04-02T20:19:18.586Z,5.90
2018-04-02T20:24:20.346Z,4.90
2018-04-02T20:29:21.909Z,6.07
2018-04-02T20:34:23.645Z,5.70
2018-04-02T20:39:25.240Z,5.33
2018-04-02T20:44:26.865Z,4.50
2018-04-02T20:49:29.163Z,5.93
2018-04-02T20:54:30.700Z,4.77
2018-04-02T20:59:32.268Z,4.47
2018-04-02T21:04:33.791Z,6.07
2018-04-02T21:09:35.381Z,4.80
2018-04-02T21:14:36.964Z,6.10
2018-04-02T21:19:38.491Z,5.97
2018-04-02T21:24:40.132Z,4.87
2018-04-02T21:29:42.481Z,6.73
2018-04-02T21:34:44.117Z,5.23
2018-04-02T21:39:45.803Z,6.00
2018-04-02T21:44:47.379Z,4.50
2018-04-02T21:49:48.993Z,5.50
2018-04-02T21:54:51.322Z,5.50
2018-04-02T21:59:52.896Z,6.13
2018-04-02T22:04:54.591Z,5.43
2018-04-02T22:09:56.160Z,5.60
2018-04-02T22:14:57.748Z,5.60
2018-04-02T22:19:59.354Z,6.17
2018-04-02T22:25:00.949Z,5.07
2018-04-02T22:30:02.497Z,6.30
2018-04-02T22:35:04.086Z,6.60
2018-04-02T22:40:05.664Z,6.90
2018-04-02T22:45:07.193Z,6.17
2018-04-02T22:50:08.744Z,6.67
2018-04-02T22:55:11.080Z,6.50
2018-04-02T23:00:12.625Z,7.10
2018-04-02T23:05:14.193Z,7.10
2018-04-02T23:10:16.153Z,6.03
2018-04-02T23:15:18.520Z,6.00
2018-04-02T23:20:20.682Z,7.50
2018-04-02T23:25:22.284Z,6.43
2018-04-02T23:30:24.559Z,7.00
2018-04-02T23:35:26.834Z,8.07
2018-04-02T23:40:28.399Z,6.83
2018-04-02T23:45:29.929Z,8.63
2018-04-02T23:50:31.508Z,8.27
2018-04-02T23:55:33.164Z,8.47
